createdAt,value
2023-01-29T00:00:53.627Z,50.85
2023-01-29T00:11:02.089Z,56.42
2023-01-29T00:21:10.250Z,51.78
2023-01-29T00:31:15.340Z,53.60
2023-01-29T00:41:39.359Z,50.00
2023-01-29T00:51:42.337Z,46.88
2023-01-29T01:02:04.221Z,50.50
2023-01-29T01:12:07.749Z,50.30
2023-01-29T01:22:12.279Z,55.17
2023-01-29T01:42:20.839Z,51.05
2023-01-29T01:52:24.127Z,56.55
2023-01-29T02:02:46.623Z,59.85
2023-01-29T02:12:49.861Z,63.00
2023-01-29T02:23:34.128Z,66.72
2023-01-29T02:33:49.215Z,46.93
2023-01-29T02:43:59.257Z,62.65
2023-01-29T02:54:08.736Z,55.03
2023-01-29T03:04:15.842Z,59.15
2023-01-29T03:14:49.371Z,51.70
2023-01-29T03:25:14.340Z,55.30
2023-01-29T03:35:36.556Z,54.83
2023-01-29T03:45:50.099Z,50.60
2023-01-29T03:56:02.307Z,51.70
2023-01-29T04:06:12.874Z,56.03
2023-01-29T04:16:29.343Z,56.08
2023-01-29T04:27:02.062Z,61.50
2023-01-29T04:37:17.004Z,57.45
2023-01-29T04:47:25.703Z,57.45
2023-01-29T04:57:36.143Z,64.13
2023-01-29T05:07:40.553Z,61.15
2023-01-29T05:17:45.188Z,63.30
2023-01-29T05:28:05.331Z,64.35
2023-01-29T05:38:09.810Z,64.22
2023-01-29T05:48:12.864Z,69.82
2023-01-29T05:58:19.625Z,66.00
2023-01-29T06:08:22.669Z,61.95
2023-01-29T06:18:27.094Z,69.03
2023-01-29T06:28:30.281Z,74.50
2023-01-29T06:38:35.009Z,68.18
2023-01-29T06:48:38.198Z,68.47
2023-01-29T06:58:43.745Z,69.35
2023-01-29T07:08:46.916Z,68.75
2023-01-29T07:18:51.427Z,70.57
2023-01-29T07:28:54.661Z,73.32
2023-01-29T07:38:59.246Z,69.40
2023-01-29T07:49:02.539Z,74.68
2023-01-29T07:59:06.870Z,70.10
2023-01-29T08:09:10.040Z,67.50
2023-01-29T08:19:14.563Z,68.78
2023-01-29T08:29:17.658Z,64.32
2023-01-29T08:39:22.244Z,66.05
2023-01-29T08:49:25.491Z,63.90
2023-01-29T08:59:30.050Z,61.90
2023-01-29T09:09:33.030Z,63.30
2023-01-29T09:19:37.352Z,58.50
2023-01-29T09:29:40.704Z,54.80
2023-01-29T09:39:45.353Z,57.15
2023-01-29T09:49:51.747Z,56.13
2023-01-29T09:59:56.459Z,52.75
2023-01-29T10:10:26.132Z,49.00
2023-01-29T10:20:56.380Z,49.50
2023-01-29T10:31:03.913Z,50.17
2023-01-29T10:41:26.320Z,48.67
2023-01-29T10:51:55.650Z,38.45
2023-01-29T11:02:03.283Z,44.50
2023-01-29T11:12:13.979Z,41.35
2023-01-29T11:22:21.021Z,38.58
2023-01-29T11:32:29.811Z,40.17
2023-01-29T11:42:35.274Z,42.92
2023-01-29T11:52:42.460Z,40.95
2023-01-29T12:02:50.227Z,43.20
2023-01-29T12:12:53.571Z,39.88
2023-01-29T12:23:05.193Z,39.72
2023-01-29T12:33:16.966Z,38.33
2023-01-29T12:43:28.749Z,39.60
2023-01-29T12:53:36.547Z,46.78
2023-01-29T13:03:51.262Z,53.65
2023-01-29T13:13:59.173Z,46.75
2023-01-29T13:24:06.016Z,47.70
2023-01-29T13:34:15.752Z,51.60
2023-01-29T13:44:24.329Z,50.83
2023-01-29T13:54:29.075Z,55.33
2023-01-29T14:04:34.184Z,54.10
2023-01-29T14:15:21.133Z,53.35
2023-01-29T14:25:32.297Z,54.72
2023-01-29T14:35:36.029Z,60.33
2023-01-29T14:45:42.811Z,53.53
2023-01-29T14:55:49.860Z,52.80
2023-01-29T15:05:55.614Z,57.33
2023-01-29T15:16:07.307Z,53.83
2023-01-29T15:26:16.269Z,52.03
2023-01-29T15:36:22.137Z,49.65
2023-01-29T15:46:29.128Z,52.53
2023-01-29T15:56:39.657Z,51.03
2023-01-29T16:06:44.938Z,50.50
2023-01-29T16:16:49.029Z,43.38
2023-01-29T16:27:00.370Z,39.50
2023-01-29T16:37:07.183Z,45.70
2023-01-29T16:47:15.755Z,40.55
2023-01-29T16:57:22.795Z,39.58
2023-01-29T17:07:28.198Z,37.58
2023-01-29T17:17:33.386Z,38.30
2023-01-29T17:27:42.136Z,37.92
2023-01-29T17:37:45.807Z,37.28
2023-01-29T17:47:50.177Z,37.45
2023-01-29T17:57:53.126Z,40.87
2023-01-29T18:07:57.567Z,48.63
2023-01-29T18:18:00.683Z,44.87
2023-01-29T18:28:06.810Z,45.78
2023-01-29T18:38:10.073Z,46.65
2023-01-29T18:48:14.932Z,48.45
2023-01-29T18:58:28.307Z,51.63
2023-01-29T19:08:41.491Z,53.15
2023-01-29T19:18:44.816Z,57.63
2023-01-29T19:28:49.439Z,53.40
2023-01-29T19:38:52.695Z,57.30
2023-01-29T19:48:58.718Z,51.88
2023-01-29T19:59:02.242Z,53.45
2023-01-29T20:09:07.104Z,55.90
2023-01-29T20:19:14.637Z,56.00
2023-01-29T20:29:19.576Z,54.50
2023-01-29T20:39:22.950Z,63.03
2023-01-29T20:49:28.663Z,57.75
2023-01-29T20:59:31.983Z,60.63
2023-01-29T21:09:36.428Z,56.75
2023-01-29T21:19:39.516Z,54.80
2023-01-29T21:29:43.991Z,59.75
2023-01-29T21:39:47.308Z,57.53
2023-01-29T21:49:51.730Z,55.42
2023-01-29T21:59:55.209Z,60.30
2023-01-29T22:09:59.679Z,60.97
2023-01-29T22:20:03.081Z,60.87
2023-01-29T22:30:09.418Z,62.95
2023-01-29T22:40:13.690Z,65.53
2023-01-29T22:50:18.389Z,68.67
2023-01-29T23:00:22.641Z,67.97
2023-01-29T23:10:26.946Z,47.20
2023-01-29T23:20:30.205Z,53.90
2023-01-29T23:30:34.624Z,63.45
2023-01-29T23:40:37.761Z,60.97
2023-01-29T23:50:42.179Z,58.25
